sensor_id;sensor_type;location;lat;lon;timestamp;P1;durP1;ratioP1;P2;durP2;ratioP2
4533;SDS011;2279;51.448;7.306;2023-04-01T00:01:13;5.57;;;3.53;;
4533;SDS011;2279;51.448;7.306;2023-04-01T00:03:40;3.20;;;2.50;;
4533;SDS011;2279;51.448;7.306;2023-04-01T00:06:06;10.67;;;3.83;;
4533;SDS011;2279;51.448;7.306;2023-04-01T00:08:32;4.17;;;3.27;;
4533;SDS011;2279;51.448;7.306;2023-04-01T00:10:58;4.53;;;3.37;;
4533;SDS011;2279;51.448;7.306;2023-04-01T00:13:25;9.10;;;5.93;;
4533;SDS011;2279;51.448;7.306;2023-04-01T00:15:52;4.23;;;3.00;;
4533;SDS011;2279;51.448;7.306;2023-04-01T00:18:18;6.10;;;3.30;;
4533;SDS011;2279;51.448;7.306;2023-04-01T00:20:45;9.53;;;4.57;;
4533;SDS011;2279;51.448;7.306;2023-04-01T00:23:11;4.03;;;3.47;;
4533;SDS011;2279;51.448;7.306;2023-04-01T00:25:37;8.90;;;4.20;;
4533;SDS011;2279;51.448;7.306;2023-04-01T00:28:03;4.20;;;3.03;;
4533;SDS011;2279;51.448;7.306;2023-04-01T00:30:29;5.87;;;3.93;;
4533;SDS011;2279;51.448;7.306;2023-04-01T00:32:55;5.30;;;3.67;;
4533;SDS011;2279;51.448;7.306;2023-04-01T00:35:21;4.57;;;3.50;;
4533;SDS011;2279;51.448;7.306;2023-04-01T00:37:48;8.40;;;3.93;;
4533;SDS011;2279;51.448;7.306;2023-04-01T00:40:25;4.80;;;3.93;;
4533;SDS011;2279;51.448;7.306;2023-04-01T00:42:52;8.33;;;3.70;;
4533;SDS011;2279;51.448;7.306;2023-04-01T00:45:26;4.83;;;3.53;;
4533;SDS011;2279;51.448;7.306;2023-04-01T00:47:52;5.73;;;3.83;;
4533;SDS011;2279;51.448;7.306;2023-04-01T00:50:18;8.43;;;3.70;;
4533;SDS011;2279;51.448;7.306;2023-04-01T00:52:44;3.80;;;3.40;;
4533;SDS011;2279;51.448;7.306;2023-04-01T00:55:11;3.70;;;3.30;;
4533;SDS011;2279;51.448;7.306;2023-04-01T00:57:38;5.80;;;4.13;;
4533;SDS011;2279;51.448;7.306;2023-04-01T01:00:06;6.00;;;3.63;;
4533;SDS011;2279;51.448;7.306;2023-04-01T01:02:34;8.90;;;4.80;;
4533;SDS011;2279;51.448;7.306;2023-04-01T01:05:00;5.07;;;3.50;;
4533;SDS011;2279;51.448;7.306;2023-04-01T01:07:41;7.03;;;5.50;;
4533;SDS011;2279;51.448;7.306;2023-04-01T01:12:40;4.27;;;3.47;;
4533;SDS011;2279;51.448;7.306;2023-04-01T01:15:20;5.07;;;3.60;;
4533;SDS011;2279;51.448;7.306;2023-04-01T01:18:05;3.80;;;3.37;;
4533;SDS011;2279;51.448;7.306;2023-04-01T01:26:35;5.00;;;3.73;;
4533;SDS011;2279;51.448;7.306;2023-04-01T01:31:50;3.87;;;3.40;;
4533;SDS011;2279;51.448;7.306;2023-04-01T01:37:12;5.23;;;4.37;;
4533;SDS011;2279;51.448;7.306;2023-04-01T01:39:39;7.17;;;3.57;;
4533;SDS011;2279;51.448;7.306;2023-04-01T01:42:08;5.10;;;4.03;;
4533;SDS011;2279;51.448;7.306;2023-04-01T01:44:35;5.53;;;3.07;;
4533;SDS011;2279;51.448;7.306;2023-04-01T01:47:02;4.57;;;3.53;;
4533;SDS011;2279;51.448;7.306;2023-04-01T01:49:28;4.93;;;3.67;;
4533;SDS011;2279;51.448;7.306;2023-04-01T01:51:56;4.53;;;3.30;;
4533;SDS011;2279;51.448;7.306;2023-04-01T01:54:22;3.90;;;3.27;;
4533;SDS011;2279;51.448;7.306;2023-04-01T01:56:49;6.07;;;3.77;;
4533;SDS011;2279;51.448;7.306;2023-04-01T01:59:17;4.93;;;3.77;;
4533;SDS011;2279;51.448;7.306;2023-04-01T02:01:45;8.57;;;4.00;;
4533;SDS011;2279;51.448;7.306;2023-04-01T02:04:11;5.80;;;3.60;;
4533;SDS011;2279;51.448;7.306;2023-04-01T02:06:39;6.40;;;3.60;;
4533;SDS011;2279;51.448;7.306;2023-04-01T02:09:08;9.63;;;3.87;;
4533;SDS011;2279;51.448;7.306;2023-04-01T02:14:05;5.87;;;3.77;;
4533;SDS011;2279;51.448;7.306;2023-04-01T02:16:33;5.57;;;3.33;;
4533;SDS011;2279;51.448;7.306;2023-04-01T02:19:00;4.37;;;3.40;;
4533;SDS011;2279;51.448;7.306;2023-04-01T02:21:27;4.57;;;3.90;;
4533;SDS011;2279;51.448;7.306;2023-04-01T02:23:56;8.10;;;4.23;;
4533;SDS011;2279;51.448;7.306;2023-04-01T02:26:24;5.37;;;3.63;;
4533;SDS011;2279;51.448;7.306;2023-04-01T02:28:51;2.77;;;2.50;;
4533;SDS011;2279;51.448;7.306;2023-04-01T02:31:18;4.70;;;3.63;;
4533;SDS011;2279;51.448;7.306;2023-04-01T02:33:44;5.07;;;3.80;;
4533;SDS011;2279;51.448;7.306;2023-04-01T02:36:13;3.67;;;3.33;;
4533;SDS011;2279;51.448;7.306;2023-04-01T02:38:40;5.03;;;3.80;;
4533;SDS011;2279;51.448;7.306;2023-04-01T02:41:06;7.80;;;4.53;;
4533;SDS011;2279;51.448;7.306;2023-04-01T02:43:32;3.57;;;3.27;;
4533;SDS011;2279;51.448;7.306;2023-04-01T02:45:58;4.63;;;3.53;;
4533;SDS011;2279;51.448;7.306;2023-04-01T02:48:24;5.50;;;3.67;;
4533;SDS011;2279;51.448;7.306;2023-04-01T02:50:50;3.60;;;3.23;;
4533;SDS011;2279;51.448;7.306;2023-04-01T02:53:16;3.60;;;3.10;;
4533;SDS011;2279;51.448;7.306;2023-04-01T02:55:42;4.00;;;3.60;;
4533;SDS011;2279;51.448;7.306;2023-04-01T02:58:09;4.70;;;3.57;;
4533;SDS011;2279;51.448;7.306;2023-04-01T03:00:35;3.90;;;3.10;;
4533;SDS011;2279;51.448;7.306;2023-04-01T03:03:01;8.10;;;4.80;;
4533;SDS011;2279;51.448;7.306;2023-04-01T03:05:28;4.63;;;2.47;;
4533;SDS011;2279;51.448;7.306;2023-04-01T03:07:54;6.13;;;3.57;;
4533;SDS011;2279;51.448;7.306;2023-04-01T03:10:20;2.53;;;2.30;;
4533;SDS011;2279;51.448;7.306;2023-04-01T03:12:46;3.73;;;3.17;;
4533;SDS011;2279;51.448;7.306;2023-04-01T03:15:12;5.30;;;3.00;;
4533;SDS011;2279;51.448;7.306;2023-04-01T03:17:39;4.80;;;3.80;;
4533;SDS011;2279;51.448;7.306;2023-04-01T03:20:06;2.87;;;2.57;;
4533;SDS011;2279;51.448;7.306;2023-04-01T03:22:33;3.77;;;3.30;;
4533;SDS011;2279;51.448;7.306;2023-04-01T03:25:00;2.97;;;2.67;;
4533;SDS011;2279;51.448;7.306;2023-04-01T03:27:26;4.37;;;3.97;;
4533;SDS011;2279;51.448;7.306;2023-04-01T03:29:51;4.87;;;3.23;;
4533;SDS011;2279;51.448;7.306;2023-04-01T03:32:17;5.00;;;3.20;;
4533;SDS011;2279;51.448;7.306;2023-04-01T03:34:44;3.70;;;2.70;;
4533;SDS011;2279;51.448;7.306;2023-04-01T03:37:10;6.63;;;3.37;;
4533;SDS011;2279;51.448;7.306;2023-04-01T03:39:36;4.10;;;2.67;;
4533;SDS011;2279;51.448;7.306;2023-04-01T03:42:02;3.83;;;3.00;;
4533;SDS011;2279;51.448;7.306;2023-04-01T03:44:31;7.43;;;5.80;;
4533;SDS011;2279;51.448;7.306;2023-04-01T03:46:57;3.23;;;2.57;;
4533;SDS011;2279;51.448;7.306;2023-04-01T03:49:23;4.17;;;2.57;;
4533;SDS011;2279;51.448;7.306;2023-04-01T03:51:49;4.90;;;3.17;;
4533;SDS011;2279;51.448;7.306;2023-04-01T03:54:15;4.80;;;3.60;;
4533;SDS011;2279;51.448;7.306;2023-04-01T03:56:42;3.93;;;3.03;;
4533;SDS011;2279;51.448;7.306;2023-04-01T03:59:08;4.53;;;3.73;;
4533;SDS011;2279;51.448;7.306;2023-04-01T04:01:34;4.03;;;3.33;;
4533;SDS011;2279;51.448;7.306;2023-04-01T04:04:00;6.90;;;3.80;;
4533;SDS011;2279;51.448;7.306;2023-04-01T04:06:26;6.50;;;3.90;;
4533;SDS011;2279;51.448;7.306;2023-04-01T04:08:52;4.20;;;3.50;;
4533;SDS011;2279;51.448;7.306;2023-04-01T04:11:19;4.37;;;3.83;;
4533;SDS011;2279;51.448;7.306;2023-04-01T04:13:45;4.93;;;4.20;;
4533;SDS011;2279;51.448;7.306;2023-04-01T04:16:12;5.00;;;4.10;;
4533;SDS011;2279;51.448;7.306;2023-04-01T04:18:39;4.83;;;4.23;;
4533;SDS011;2279;51.448;7.306;2023-04-01T04:21:05;4.87;;;4.37;;
4533;SDS011;2279;51.448;7.306;2023-04-01T04:23:31;5.10;;;4.50;;
4533;SDS011;2279;51.448;7.306;2023-04-01T04:26:08;4.97;;;3.97;;
4533;SDS011;2279;51.448;7.306;2023-04-01T04:28:34;4.20;;;3.80;;
4533;SDS011;2279;51.448;7.306;2023-04-01T04:31:00;8.90;;;4.50;;
4533;SDS011;2279;51.448;7.306;2023-04-01T04:33:27;5.57;;;4.10;;
4533;SDS011;2279;51.448;7.306;2023-04-01T04:35:54;20.60;;;11.20;;
4533;SDS011;2279;51.448;7.306;2023-04-01T04:38:21;5.43;;;4.50;;
4533;SDS011;2279;51.448;7.306;2023-04-01T04:40:47;7.60;;;4.67;;
4533;SDS011;2279;51.448;7.306;2023-04-01T04:43:13;6.13;;;5.07;;
4533;SDS011;2279;51.448;7.306;2023-04-01T04:45:40;9.60;;;6.73;;
4533;SDS011;2279;51.448;7.306;2023-04-01T04:48:09;5.93;;;4.70;;
4533;SDS011;2279;51.448;7.306;2023-04-01T04:50:35;6.47;;;5.43;;
4533;SDS011;2279;51.448;7.306;2023-04-01T04:53:02;10.20;;;5.77;;
4533;SDS011;2279;51.448;7.306;2023-04-01T04:55:28;5.30;;;4.50;;
4533;SDS011;2279;51.448;7.306;2023-04-01T04:57:54;6.33;;;4.20;;
4533;SDS011;2279;51.448;7.306;2023-04-01T05:00:20;6.43;;;4.60;;
4533;SDS011;2279;51.448;7.306;2023-04-01T05:02:46;4.67;;;4.00;;
4533;SDS011;2279;51.448;7.306;2023-04-01T05:05:12;5.50;;;3.70;;
4533;SDS011;2279;51.448;7.306;2023-04-01T05:07:38;5.50;;;4.83;;
4533;SDS011;2279;51.448;7.306;2023-04-01T05:10:05;5.13;;;4.33;;
4533;SDS011;2279;51.448;7.306;2023-04-01T05:12:31;6.03;;;4.30;;
4533;SDS011;2279;51.448;7.306;2023-04-01T05:15:01;4.60;;;4.10;;
4533;SDS011;2279;51.448;7.306;2023-04-01T05:17:27;7.73;;;5.50;;
4533;SDS011;2279;51.448;7.306;2023-04-01T05:19:53;5.73;;;3.90;;
4533;SDS011;2279;51.448;7.306;2023-04-01T05:22:19;5.23;;;4.37;;
4533;SDS011;2279;51.448;7.306;2023-04-01T05:24:45;6.80;;;4.83;;
4533;SDS011;2279;51.448;7.306;2023-04-01T05:27:11;4.20;;;3.80;;
4533;SDS011;2279;51.448;7.306;2023-04-01T05:29:36;3.90;;;3.50;;
4533;SDS011;2279;51.448;7.306;2023-04-01T05:32:02;8.80;;;4.07;;
4533;SDS011;2279;51.448;7.306;2023-04-01T05:34:28;5.20;;;4.70;;
4533;SDS011;2279;51.448;7.306;2023-04-01T05:36:54;4.07;;;3.67;;
4533;SDS011;2279;51.448;7.306;2023-04-01T05:39:20;5.87;;;4.70;;
4533;SDS011;2279;51.448;7.306;2023-04-01T05:41:46;5.50;;;3.97;;
4533;SDS011;2279;51.448;7.306;2023-04-01T05:44:12;7.13;;;4.40;;
4533;SDS011;2279;51.448;7.306;2023-04-01T05:46:38;7.10;;;4.73;;
4533;SDS011;2279;51.448;7.306;2023-04-01T05:49:04;4.30;;;3.47;;
4533;SDS011;2279;51.448;7.306;2023-04-01T05:51:30;4.93;;;4.43;;
4533;SDS011;2279;51.448;7.306;2023-04-01T05:53:56;4.87;;;4.17;;
4533;SDS011;2279;51.448;7.306;2023-04-01T05:56:22;4.97;;;4.10;;
4533;SDS011;2279;51.448;7.306;2023-04-01T05:58:50;3.60;;;3.30;;
4533;SDS011;2279;51.448;7.306;2023-04-01T06:01:17;4.77;;;3.80;;
4533;SDS011;2279;51.448;7.306;2023-04-01T06:03:43;6.90;;;4.63;;
4533;SDS011;2279;51.448;7.306;2023-04-01T06:06:18;6.40;;;4.57;;
4533;SDS011;2279;51.448;7.306;2023-04-01T06:08:45;6.70;;;5.20;;
4533;SDS011;2279;51.448;7.306;2023-04-01T06:19:07;6.23;;;4.87;;
4533;SDS011;2279;51.448;7.306;2023-04-01T06:26:33;6.00;;;4.47;;
4533;SDS011;2279;51.448;7.306;2023-04-01T06:39:59;7.90;;;4.43;;
4533;SDS011;2279;51.448;7.306;2023-04-01T06:45:16;10.60;;;6.50;;
4533;SDS011;2279;51.448;7.306;2023-04-01T06:50:35;5.80;;;5.03;;
4533;SDS011;2279;51.448;7.306;2023-04-01T06:53:20;4.40;;;3.90;;
4533;SDS011;2279;51.448;7.306;2023-04-01T06:56:08;4.73;;;4.23;;
4533;SDS011;2279;51.448;7.306;2023-04-01T06:58:56;4.70;;;3.57;;
4533;SDS011;2279;51.448;7.306;2023-04-01T07:02:04;9.30;;;7.20;;
4533;SDS011;2279;51.448;7.306;2023-04-01T07:06:42;9.80;;;4.97;;
4533;SDS011;2279;51.448;7.306;2023-04-01T07:09:22;7.00;;;5.50;;
4533;SDS011;2279;51.448;7.306;2023-04-01T07:11:49;5.07;;;4.23;;
4533;SDS011;2279;51.448;7.306;2023-04-01T07:14:24;4.97;;;4.03;;
4533;SDS011;2279;51.448;7.306;2023-04-01T07:16:52;7.20;;;4.07;;
4533;SDS011;2279;51.448;7.306;2023-04-01T07:19:23;4.60;;;3.83;;
4533;SDS011;2279;51.448;7.306;2023-04-01T07:21:52;3.90;;;3.20;;
4533;SDS011;2279;51.448;7.306;2023-04-01T07:24:27;4.97;;;3.77;;
4533;SDS011;2279;51.448;7.306;2023-04-01T07:26:55;4.03;;;3.33;;
4533;SDS011;2279;51.448;7.306;2023-04-01T07:29:22;4.97;;;3.50;;
4533;SDS011;2279;51.448;7.306;2023-04-01T07:37:13;4.80;;;4.30;;
4533;SDS011;2279;51.448;7.306;2023-04-01T07:40:00;4.50;;;4.07;;
4533;SDS011;2279;51.448;7.306;2023-04-01T07:50:13;5.67;;;4.33;;
4533;SDS011;2279;51.448;7.306;2023-04-01T07:55:16;6.77;;;4.27;;
4533;SDS011;2279;51.448;7.306;2023-04-01T07:57:50;2.83;;;2.60;;
4533;SDS011;2279;51.448;7.306;2023-04-01T08:00:20;3.27;;;2.97;;
4533;SDS011;2279;51.448;7.306;2023-04-01T08:05:27;10.23;;;3.90;;
4533;SDS011;2279;51.448;7.306;2023-04-01T08:25:46;3.77;;;3.40;;
4533;SDS011;2279;51.448;7.306;2023-04-01T08:28:16;3.87;;;3.37;;
4533;SDS011;2279;51.448;7.306;2023-04-01T08:30:44;4.37;;;3.40;;
4533;SDS011;2279;51.448;7.306;2023-04-01T08:33:24;5.80;;;3.57;;
4533;SDS011;2279;51.448;7.306;2023-04-01T08:38:19;4.60;;;3.87;;
4533;SDS011;2279;51.448;7.306;2023-04-01T08:43:25;4.97;;;4.00;;
4533;SDS011;2279;51.448;7.306;2023-04-01T08:51:16;6.70;;;5.37;;
4533;SDS011;2279;51.448;7.306;2023-04-01T08:56:34;5.47;;;4.17;;
4533;SDS011;2279;51.448;7.306;2023-04-01T08:59:12;4.93;;;4.43;;
4533;SDS011;2279;51.448;7.306;2023-04-01T09:04:24;5.70;;;4.37;;
4533;SDS011;2279;51.448;7.306;2023-04-01T09:06:52;4.20;;;3.80;;
4533;SDS011;2279;51.448;7.306;2023-04-01T09:09:46;4.87;;;4.13;;
4533;SDS011;2279;51.448;7.306;2023-04-01T09:12:37;5.83;;;4.93;;
4533;SDS011;2279;51.448;7.306;2023-04-01T09:38:29;6.33;;;5.33;;
4533;SDS011;2279;51.448;7.306;2023-04-01T09:45:52;10.13;;;7.57;;
4533;SDS011;2279;51.448;7.306;2023-04-01T09:48:42;7.80;;;6.37;;
4533;SDS011;2279;51.448;7.306;2023-04-01T09:56:26;8.87;;;6.07;;
4533;SDS011;2279;51.448;7.306;2023-04-01T10:04:17;9.90;;;7.83;;
4533;SDS011;2279;51.448;7.306;2023-04-01T10:09:50;13.17;;;9.17;;
4533;SDS011;2279;51.448;7.306;2023-04-01T10:12:14;14.70;;;9.80;;
4533;SDS011;2279;51.448;7.306;2023-04-01T10:17:24;12.60;;;9.13;;
4533;SDS011;2279;51.448;7.306;2023-04-01T10:40:53;9.80;;;6.73;;
4533;SDS011;2279;51.448;7.306;2023-04-01T10:54:07;8.43;;;7.53;;
4533;SDS011;2279;51.448;7.306;2023-04-01T11:33:28;10.90;;;6.40;;
4533;SDS011;2279;51.448;7.306;2023-04-01T11:36:04;12.23;;;6.20;;
4533;SDS011;2279;51.448;7.306;2023-04-01T11:38:56;6.33;;;5.23;;
4533;SDS011;2279;51.448;7.306;2023-04-01T11:44:18;8.37;;;5.77;;
4533;SDS011;2279;51.448;7.306;2023-04-01T11:49:33;10.33;;;7.03;;
4533;SDS011;2279;51.448;7.306;2023-04-01T12:02:33;7.70;;;6.90;;
4533;SDS011;2279;51.448;7.306;2023-04-01T12:05:14;11.10;;;8.60;;
4533;SDS011;2279;51.448;7.306;2023-04-01T12:18:00;8.67;;;6.33;;
4533;SDS011;2279;51.448;7.306;2023-04-01T12:26:04;7.70;;;6.07;;
4533;SDS011;2279;51.448;7.306;2023-04-01T13:01:59;6.87;;;6.17;;
4533;SDS011;2279;51.448;7.306;2023-04-01T13:04:37;6.50;;;5.90;;
4533;SDS011;2279;51.448;7.306;2023-04-01T13:09:59;7.47;;;6.20;;
4533;SDS011;2279;51.448;7.306;2023-04-01T13:20:25;6.67;;;5.50;;
4533;SDS011;2279;51.448;7.306;2023-04-01T13:25:44;7.93;;;5.80;;
4533;SDS011;2279;51.448;7.306;2023-04-01T13:28:18;14.83;;;8.20;;
4533;SDS011;2279;51.448;7.306;2023-04-01T13:33:24;9.63;;;7.93;;
4533;SDS011;2279;51.448;7.306;2023-04-01T13:41:22;10.47;;;9.17;;
4533;SDS011;2279;51.448;7.306;2023-04-01T13:43:52;12.33;;;9.80;;
4533;SDS011;2279;51.448;7.306;2023-04-01T13:48:51;10.30;;;8.50;;
4533;SDS011;2279;51.448;7.306;2023-04-01T13:51:31;9.50;;;8.10;;
4533;SDS011;2279;51.448;7.306;2023-04-01T13:54:13;9.47;;;6.73;;
4533;SDS011;2279;51.448;7.306;2023-04-01T14:12:30;7.03;;;6.10;;
4533;SDS011;2279;51.448;7.306;2023-04-01T14:36:07;6.63;;;4.77;;
4533;SDS011;2279;51.448;7.306;2023-04-01T14:38:42;8.00;;;6.00;;
4533;SDS011;2279;51.448;7.306;2023-04-01T14:41:19;8.23;;;5.80;;
4533;SDS011;2279;51.448;7.306;2023-04-01T14:56:43;11.97;;;8.27;;
4533;SDS011;2279;51.448;7.306;2023-04-01T15:04:43;15.33;;;6.83;;
4533;SDS011;2279;51.448;7.306;2023-04-01T15:17:37;9.77;;;7.27;;
4533;SDS011;2279;51.448;7.306;2023-04-01T15:20:11;8.07;;;6.47;;
4533;SDS011;2279;51.448;7.306;2023-04-01T15:22:51;8.20;;;6.47;;
4533;SDS011;2279;51.448;7.306;2023-04-01T15:25:27;8.37;;;7.47;;
4533;SDS011;2279;51.448;7.306;2023-04-01T15:27:59;8.70;;;7.60;;
4533;SDS011;2279;51.448;7.306;2023-04-01T15:30:34;9.20;;;7.90;;
4533;SDS011;2279;51.448;7.306;2023-04-01T15:35:31;8.50;;;7.70;;
4533;SDS011;2279;51.448;7.306;2023-04-01T15:45:31;16.23;;;10.23;;
4533;SDS011;2279;51.448;7.306;2023-04-01T15:48:38;13.57;;;9.33;;
4533;SDS011;2279;51.448;7.306;2023-04-01T15:53:27;14.97;;;10.93;;
4533;SDS011;2279;51.448;7.306;2023-04-01T15:58:25;13.13;;;10.00;;
4533;SDS011;2279;51.448;7.306;2023-04-01T16:01:15;12.40;;;10.10;;
4533;SDS011;2279;51.448;7.306;2023-04-01T16:09:01;10.73;;;9.00;;
4533;SDS011;2279;51.448;7.306;2023-04-01T16:11:30;10.90;;;8.27;;
4533;SDS011;2279;51.448;7.306;2023-04-01T16:21:51;12.43;;;9.73;;
4533;SDS011;2279;51.448;7.306;2023-04-01T16:24:52;10.60;;;9.30;;
4533;SDS011;2279;51.448;7.306;2023-04-01T16:27:16;14.33;;;9.50;;
4533;SDS011;2279;51.448;7.306;2023-04-01T16:29:46;11.90;;;9.70;;
4533;SDS011;2279;51.448;7.306;2023-04-01T16:32:25;15.60;;;9.23;;
4533;SDS011;2279;51.448;7.306;2023-04-01T16:34:58;11.00;;;9.60;;
4533;SDS011;2279;51.448;7.306;2023-04-01T16:37:43;15.63;;;9.60;;
4533;SDS011;2279;51.448;7.306;2023-04-01T16:42:49;11.33;;;8.83;;
4533;SDS011;2279;51.448;7.306;2023-04-01T16:45:19;11.57;;;8.80;;
4533;SDS011;2279;51.448;7.306;2023-04-01T16:47:50;12.83;;;8.87;;
4533;SDS011;2279;51.448;7.306;2023-04-01T16:55:42;11.00;;;8.40;;
4533;SDS011;2279;51.448;7.306;2023-04-01T16:58:10;11.50;;;8.03;;
4533;SDS011;2279;51.448;7.306;2023-04-01T17:00:41;10.70;;;8.73;;
4533;SDS011;2279;51.448;7.306;2023-04-01T17:03:11;12.07;;;9.17;;
4533;SDS011;2279;51.448;7.306;2023-04-01T17:11:10;11.30;;;8.63;;
4533;SDS011;2279;51.448;7.306;2023-04-01T17:16:56;8.87;;;7.60;;
4533;SDS011;2279;51.448;7.306;2023-04-01T17:21:49;12.00;;;8.70;;
4533;SDS011;2279;51.448;7.306;2023-04-01T17:27:06;14.20;;;8.43;;
4533;SDS011;2279;51.448;7.306;2023-04-01T17:32:15;10.27;;;7.87;;
4533;SDS011;2279;51.448;7.306;2023-04-01T17:35:05;8.80;;;7.83;;
4533;SDS011;2279;51.448;7.306;2023-04-01T17:37:53;8.10;;;7.30;;
4533;SDS011;2279;51.448;7.306;2023-04-01T17:40:30;10.40;;;7.13;;
4533;SDS011;2279;51.448;7.306;2023-04-01T17:48:08;10.13;;;7.00;;
4533;SDS011;2279;51.448;7.306;2023-04-01T17:55:58;11.40;;;8.57;;
4533;SDS011;2279;51.448;7.306;2023-04-01T18:01:04;12.73;;;9.27;;
4533;SDS011;2279;51.448;7.306;2023-04-01T18:03:50;18.67;;;8.90;;
4533;SDS011;2279;51.448;7.306;2023-04-01T18:06:21;11.60;;;9.23;;
4533;SDS011;2279;51.448;7.306;2023-04-01T18:16:43;11.93;;;9.30;;
4533;SDS011;2279;51.448;7.306;2023-04-01T18:21:42;12.50;;;10.27;;
4533;SDS011;2279;51.448;7.306;2023-04-01T18:24:24;14.23;;;9.80;;
4533;SDS011;2279;51.448;7.306;2023-04-01T18:35:00;14.73;;;11.10;;
4533;SDS011;2279;51.448;7.306;2023-04-01T18:37:30;14.60;;;9.97;;
4533;SDS011;2279;51.448;7.306;2023-04-01T18:39:59;17.07;;;10.27;;
4533;SDS011;2279;51.448;7.306;2023-04-01T18:42:31;15.00;;;9.60;;
4533;SDS011;2279;51.448;7.306;2023-04-01T18:45:01;15.90;;;11.00;;
4533;SDS011;2279;51.448;7.306;2023-04-01T18:50:18;12.33;;;9.87;;
4533;SDS011;2279;51.448;7.306;2023-04-01T18:52:45;15.30;;;11.80;;
4533;SDS011;2279;51.448;7.306;2023-04-01T19:00:20;17.20;;;9.63;;
4533;SDS011;2279;51.448;7.306;2023-04-01T19:03:37;18.43;;;10.80;;
4533;SDS011;2279;51.448;7.306;2023-04-01T19:05:36;15.87;;;11.47;;
4533;SDS011;2279;51.448;7.306;2023-04-01T19:13:32;24.37;;;12.20;;
4533;SDS011;2279;51.448;7.306;2023-04-01T19:16:17;14.27;;;10.40;;
4533;SDS011;2279;51.448;7.306;2023-04-01T19:21:16;14.23;;;10.53;;
4533;SDS011;2279;51.448;7.306;2023-04-01T19:23:58;13.23;;;9.00;;
4533;SDS011;2279;51.448;7.306;2023-04-01T19:26:40;13.47;;;9.70;;
4533;SDS011;2279;51.448;7.306;2023-04-01T19:34:37;12.20;;;9.13;;
4533;SDS011;2279;51.448;7.306;2023-04-01T19:37:11;19.30;;;10.83;;
4533;SDS011;2279;51.448;7.306;2023-04-01T19:39:50;10.40;;;8.60;;
4533;SDS011;2279;51.448;7.306;2023-04-01T19:44:58;15.93;;;9.27;;
4533;SDS011;2279;51.448;7.306;2023-04-01T19:50:01;12.27;;;8.80;;
4533;SDS011;2279;51.448;7.306;2023-04-01T19:52:33;12.97;;;8.90;;
4533;SDS011;2279;51.448;7.306;2023-04-01T19:55:06;10.57;;;7.47;;
4533;SDS011;2279;51.448;7.306;2023-04-01T20:05:04;8.10;;;6.53;;
4533;SDS011;2279;51.448;7.306;2023-04-01T20:07:43;7.80;;;7.00;;
4533;SDS011;2279;51.448;7.306;2023-04-01T20:10:14;7.63;;;6.00;;
4533;SDS011;2279;51.448;7.306;2023-04-01T20:17:53;7.10;;;6.30;;
4533;SDS011;2279;51.448;7.306;2023-04-01T20:20:21;6.20;;;5.60;;
4533;SDS011;2279;51.448;7.306;2023-04-01T20:23:00;6.70;;;5.63;;
4533;SDS011;2279;51.448;7.306;2023-04-01T20:25:32;7.70;;;6.80;;
4533;SDS011;2279;51.448;7.306;2023-04-01T20:28:02;6.33;;;5.70;;
4533;SDS011;2279;51.448;7.306;2023-04-01T20:40:50;12.13;;;9.60;;
4533;SDS011;2279;51.448;7.306;2023-04-01T20:43:26;12.87;;;10.20;;
4533;SDS011;2279;51.448;7.306;2023-04-01T20:51:05;12.90;;;10.87;;
4533;SDS011;2279;51.448;7.306;2023-04-01T20:53:43;13.40;;;9.47;;
4533;SDS011;2279;51.448;7.306;2023-04-01T21:03:49;6.37;;;5.80;;
4533;SDS011;2279;51.448;7.306;2023-04-01T21:09:12;4.97;;;4.47;;
4533;SDS011;2279;51.448;7.306;2023-04-01T21:14:46;4.63;;;4.23;;
4533;SDS011;2279;51.448;7.306;2023-04-01T21:25:01;4.47;;;4.07;;
4533;SDS011;2279;51.448;7.306;2023-04-01T21:30:34;6.60;;;5.73;;
4533;SDS011;2279;51.448;7.306;2023-04-01T21:35:31;7.00;;;6.00;;
4533;SDS011;2279;51.448;7.306;2023-04-01T21:38:23;8.50;;;6.70;;
4533;SDS011;2279;51.448;7.306;2023-04-01T21:41:00;9.60;;;7.70;;
4533;SDS011;2279;51.448;7.306;2023-04-01T22:04:32;9.83;;;5.47;;
4533;SDS011;2279;51.448;7.306;2023-04-01T22:07:06;8.33;;;6.33;;
4533;SDS011;2279;51.448;7.306;2023-04-01T22:10:03;9.13;;;7.70;;
4533;SDS011;2279;51.448;7.306;2023-04-01T22:12:44;11.73;;;8.93;;
4533;SDS011;2279;51.448;7.306;2023-04-01T22:20:33;7.33;;;6.60;;
4533;SDS011;2279;51.448;7.306;2023-04-01T22:25:45;11.60;;;6.93;;
4533;SDS011;2279;51.448;7.306;2023-04-01T22:28:19;13.10;;;10.50;;
4533;SDS011;2279;51.448;7.306;2023-04-01T22:30:50;11.00;;;8.80;;
4533;SDS011;2279;51.448;7.306;2023-04-01T22:33:20;11.40;;;8.90;;
4533;SDS011;2279;51.448;7.306;2023-04-01T22:36:00;11.10;;;7.77;;
4533;SDS011;2279;51.448;7.306;2023-04-01T22:43:38;8.87;;;7.63;;
4533;SDS011;2279;51.448;7.306;2023-04-01T22:48:41;9.40;;;8.30;;
4533;SDS011;2279;51.448;7.306;2023-04-01T22:51:17;10.90;;;8.93;;
4533;SDS011;2279;51.448;7.306;2023-04-01T22:53:57;14.73;;;9.77;;
4533;SDS011;2279;51.448;7.306;2023-04-01T22:56:30;12.97;;;9.17;;
4533;SDS011;2279;51.448;7.306;2023-04-01T22:59:00;14.23;;;9.07;;
4533;SDS011;2279;51.448;7.306;2023-04-01T23:01:29;10.87;;;8.63;;
4533;SDS011;2279;51.448;7.306;2023-04-01T23:03:56;11.70;;;9.10;;
4533;SDS011;2279;51.448;7.306;2023-04-01T23:06:28;10.93;;;8.00;;
4533;SDS011;2279;51.448;7.306;2023-04-01T23:09:04;10.77;;;8.03;;
4533;SDS011;2279;51.448;7.306;2023-04-01T23:11:35;10.80;;;6.80;;
4533;SDS011;2279;51.448;7.306;2023-04-01T23:14:20;8.17;;;6.97;;
4533;SDS011;2279;51.448;7.306;2023-04-01T23:19:42;11.03;;;7.50;;
4533;SDS011;2279;51.448;7.306;2023-04-01T23:22:10;6.93;;;5.90;;
4533;SDS011;2279;51.448;7.306;2023-04-01T23:24:43;7.33;;;6.07;;
4533;SDS011;2279;51.448;7.306;2023-04-01T23:27:35;6.27;;;5.67;;
4533;SDS011;2279;51.448;7.306;2023-04-01T23:30:00;11.43;;;6.83;;
4533;SDS011;2279;51.448;7.306;2023-04-01T23:32:26;6.40;;;5.70;;
4533;SDS011;2279;51.448;7.306;2023-04-01T23:34:56;6.57;;;5.97;;
4533;SDS011;2279;51.448;7.306;2023-04-01T23:37:23;6.43;;;5.40;;
4533;SDS011;2279;51.448;7.306;2023-04-01T23:39:50;5.20;;;4.80;;
4533;SDS011;2279;51.448;7.306;2023-04-01T23:44:53;6.47;;;5.53;;
4533;SDS011;2279;51.448;7.306;2023-04-01T23:47:22;6.87;;;5.80;;
4533;SDS011;2279;51.448;7.306;2023-04-01T23:49:53;5.77;;;5.27;;
4533;SDS011;2279;51.448;7.306;2023-04-01T23:54:53;9.87;;;8.33;;
4533;SDS011;2279;51.448;7.306;2023-04-01T23:57:26;12.07;;;8.97;;
